Time;durP1;ratioP1;P1;durP2;ratioP2;P2;SDS_P1;SDS_P2;PMS_P1;PMS_P2;Temp;Humidity;BMP_temperature;BMP_pressure;BME280_temperature;BME280_humidity;BME280_pressure;Samples;Min_cycle;Max_cycle;Signal;HPM_P1;HPM_P2
2022/05/19 00:00:23;;;;;;;5.18;2.50;;;20.50;69.20;;;;;;5076942;28;20074;-79
2022/05/19 00:02:50;;;;;;;3.80;2.05;;;20.50;69.30;;;;;;5096176;28;20047;-79
2022/05/19 00:05:19;;;;;;;4.15;2.00;;;20.50;69.40;;;;;;5083677;28;20130;-80
2022/05/19 00:07:47;;;;;;;3.97;1.98;;;20.40;69.50;;;;;;5115051;28;20131;-80
2022/05/19 00:10:16;;;;;;;2.90;1.85;;;20.40;69.60;;;;;;5113215;28;20055;-80
2022/05/19 00:12:43;;;;;;;3.13;1.73;;;20.30;69.60;;;;;;5087928;28;20040;-79
2022/05/19 00:15:12;;;;;;;3.05;1.85;;;20.30;69.80;;;;;;5087899;28;20074;-81
2022/05/19 00:17:40;;;;;;;2.90;1.90;;;20.30;69.90;;;;;;5094988;28;20373;-81
2022/05/19 00:20:09;;;;;;;3.53;2.10;;;20.20;70.00;;;;;;5078006;28;20075;-80
2022/05/19 00:22:36;;;;;;;3.50;2.10;;;20.20;70.10;;;;;;5076575;28;20456;-81
2022/05/19 00:25:03;;;;;;;3.65;2.08;;;20.20;70.30;;;;;;5081430;28;20513;-81
2022/05/19 00:27:30;;;;;;;4.35;2.30;;;20.20;70.40;;;;;;5111127;28;20044;-81
2022/05/19 00:29:57;;;;;;;3.95;2.47;;;20.20;70.50;;;;;;5057037;28;20044;-79
2022/05/19 00:32:24;;;;;;;5.13;2.65;;;20.20;70.60;;;;;;5074468;28;20222;-80
2022/05/19 00:34:51;;;;;;;4.80;2.60;;;20.20;70.70;;;;;;5091938;28;20086;-80
2022/05/19 00:37:18;;;;;;;5.25;2.40;;;20.20;70.70;;;;;;5075938;28;20097;-80
2022/05/19 00:39:46;;;;;;;3.55;2.30;;;20.20;70.80;;;;;;5105726;28;20039;-80
2022/05/19 00:45:02;;;;;;;4.05;2.58;;;20.20;70.90;;;;;;5104359;28;20051;-80
2022/05/19 00:47:54;;;;;;;5.10;2.85;;;20.20;70.90;;;;;;5085521;28;20067;-80
2022/05/19 00:50:43;;;;;;;5.63;2.50;;;20.20;71.00;;;;;;5088945;28;20165;-80
2022/05/19 00:53:22;;;;;;;4.88;2.83;;;20.20;70.90;;;;;;5093139;28;20039;-80
2022/05/19 00:55:52;;;;;;;3.55;2.10;;;20.20;71.10;;;;;;5091214;28;20429;-81
2022/05/19 00:58:56;;;;;;;5.05;3.10;;;20.20;71.10;;;;;;5079762;28;20031;-80
2022/05/19 01:01:24;;;;;;;6.57;3.28;;;20.20;71.10;;;;;;5077730;28;20496;-80
2022/05/19 01:03:58;;;;;;;5.20;3.28;;;20.20;71.20;;;;;;5097493;28;20043;-81
2022/05/19 01:06:29;;;;;;;6.05;3.13;;;20.20;71.20;;;;;;5113929;28;20043;-81
2022/05/19 01:09:01;;;;;;;7.68;4.90;;;20.20;71.30;;;;;;5093546;28;20040;-80
2022/05/19 01:11:28;;;;;;;;;;;20.20;71.40;;;;;;5077188;28;20040;-80
2022/05/19 01:13:55;;;;;;;5.50;3.30;;;20.20;71.40;;;;;;5114580;28;19963;-80
2022/05/19 01:16:23;;;;;;;5.40;3.65;;;20.20;71.50;;;;;;5094762;28;20048;-80
2022/05/19 01:18:50;;;;;;;5.97;3.75;;;20.20;71.60;;;;;;5090586;28;20114;-80
2022/05/19 01:21:20;;;;;;;7.45;4.22;;;20.20;71.70;;;;;;5103188;28;20484;-80
2022/05/19 01:23:59;;;;;;;5.70;3.95;;;20.20;71.80;;;;;;5103436;28;20112;-80
2022/05/19 01:26:47;;;;;;;7.82;4.40;;;20.20;71.90;;;;;;5108027;28;20051;-80
2022/05/19 01:29:18;;;;;;;6.57;4.88;;;20.20;72.60;;;;;;5111984;28;20043;-81
2022/05/19 01:31:53;;;;;;;6.85;4.30;;;20.10;72.20;;;;;;5093243;28;20036;-80
2022/05/19 01:34:28;;;;;;;7.90;4.43;;;20.10;72.30;;;;;;5109039;28;20036;-80
2022/05/19 01:36:55;;;;;;;6.35;4.40;;;20.10;72.40;;;;;;5113477;28;20460;-80
2022/05/19 01:39:39;;;;;;;8.60;4.65;;;20.10;73.10;;;;;;5078923;28;20101;-80
2022/05/19 01:42:16;;;;;;;7.63;5.15;;;20.00;72.50;;;;;;5079750;28;20039;-80
2022/05/19 01:44:57;;;;;;;7.40;5.20;;;20.10;72.60;;;;;;5111865;28;20055;-81
2022/05/19 01:47:27;;;;;;;6.55;4.72;;;20.00;72.70;;;;;;5113320;28;20047;-80
2022/05/19 01:50:27;;;;;;;7.72;4.55;;;20.00;72.80;;;;;;5089356;28;20093;-79
2022/05/19 01:53:32;;;;;;;8.15;4.35;;;20.00;72.80;;;;;;5111615;28;20054;-80
2022/05/19 01:56:21;;;;;;;7.55;4.60;;;20.00;72.90;;;;;;5093902;28;20032;-79
2022/05/19 01:59:13;;;;;;;6.70;3.97;;;20.00;73.00;;;;;;5112930;28;20052;-80
2022/05/19 02:01:52;;;;;;;8.07;4.65;;;20.00;73.10;;;;;;5113349;28;20067;-79
2022/05/19 02:04:30;;;;;;;6.35;4.45;;;20.00;73.30;;;;;;5102894;28;20427;-79
2022/05/19 02:07:02;;;;;;;9.77;6.18;;;20.00;73.40;;;;;;5111986;28;20052;-80
2022/05/19 02:09:36;;;;;;;8.65;5.47;;;19.90;73.40;;;;;;5112511;28;20054;-79
2022/05/19 02:12:03;;;;;;;7.72;5.35;;;19.90;73.50;;;;;;5095616;28;20470;-79
2022/05/19 02:14:42;;;;;;;8.98;4.93;;;19.90;73.60;;;;;;5070839;28;20044;-80
2022/05/19 02:17:14;;;;;;;7.95;4.55;;;19.90;73.60;;;;;;5088617;28;20044;-80
2022/05/19 02:19:49;;;;;;;7.78;5.47;;;19.90;73.70;;;;;;5092289;28;20052;-79
2022/05/19 02:22:18;;;;;;;8.40;4.95;;;19.90;73.80;;;;;;5109632;28;20101;-81
2022/05/19 02:24:55;;;;;;;9.32;5.13;;;19.90;73.90;;;;;;5099618;28;20043;-80
2022/05/19 02:27:22;;;;;;;7.70;4.78;;;19.90;74.00;;;;;;5113827;28;20039;-80
2022/05/19 02:29:50;;;;;;;7.68;4.32;;;19.90;74.10;;;;;;5112494;28;20119;-76
2022/05/19 02:32:17;;;;;;;7.60;4.97;;;19.80;74.10;;;;;;5111917;28;20036;-76
2022/05/19 02:34:44;;;;;;;5.43;4.47;;;19.80;74.30;;;;;;5076063;28;20036;-76
2022/05/19 02:37:11;;;;;;;8.93;4.80;;;19.80;74.40;;;;;;5089013;28;20047;-76
2022/05/19 02:39:39;;;;;;;7.05;4.78;;;19.80;74.50;;;;;;5077861;28;20062;-76
2022/05/19 02:42:07;;;;;;;6.30;4.85;;;19.80;74.60;;;;;;5069232;28;20056;-76
2022/05/19 02:44:34;;;;;;;7.10;4.60;;;19.70;74.70;;;;;;5077726;28;20157;-76
2022/05/19 02:47:01;;;;;;;5.72;4.18;;;19.70;74.70;;;;;;5087022;28;20097;-76
2022/05/19 02:49:28;;;;;;;8.38;5.05;;;19.70;74.90;;;;;;5085440;28;20055;-76
2022/05/19 02:51:55;;;;;;;7.90;4.80;;;19.70;74.90;;;;;;5099927;28;20061;-76
2022/05/19 02:54:22;;;;;;;7.97;4.70;;;19.70;75.00;;;;;;5090020;28;20124;-76
2022/05/19 02:56:49;;;;;;;7.25;4.63;;;19.70;75.10;;;;;;5111950;28;20085;-77
2022/05/19 02:59:16;;;;;;;6.75;4.68;;;19.60;75.10;;;;;;5094595;28;20044;-76
2022/05/19 03:01:43;;;;;;;7.70;4.72;;;19.60;75.10;;;;;;5106231;28;20391;-76
2022/05/19 03:04:10;;;;;;;7.07;4.68;;;19.60;75.20;;;;;;5107115;28;20044;-77
2022/05/19 03:06:38;;;;;;;7.20;5.28;;;19.60;75.30;;;;;;5078697;28;20048;-77
2022/05/19 03:09:05;;;;;;;6.43;4.85;;;19.60;75.40;;;;;;5094355;28;20071;-75
2022/05/19 03:11:32;;;;;;;7.60;4.95;;;19.60;75.40;;;;;;5094977;28;20051;-76
2022/05/19 03:14:03;;;;;;;7.20;4.75;;;19.60;75.40;;;;;;5095083;28;20043;-76
2022/05/19 03:16:30;;;;;;;6.65;4.63;;;19.60;75.40;;;;;;5080410;28;20040;-76
2022/05/19 03:18:57;;;;;;;5.80;3.92;;;19.60;75.40;;;;;;5055178;28;20115;-76
2022/05/19 03:21:24;;;;;;;7.93;4.78;;;19.70;75.50;;;;;;5093268;28;20096;-76
2022/05/19 03:23:52;;;;;;;6.55;4.93;;;19.70;75.50;;;;;;5105691;28;20051;-76
2022/05/19 03:26:19;;;;;;;6.78;4.40;;;19.70;75.40;;;;;;5071868;28;20048;-76
2022/05/19 03:28:47;;;;;;;5.28;4.13;;;19.70;75.40;;;;;;5088372;28;20131;-75
2022/05/19 03:31:14;;;;;;;6.65;4.75;;;19.80;75.40;;;;;;5106267;28;20043;-76
2022/05/19 03:33:41;;;;;;;8.35;5.90;;;19.80;75.30;;;;;;5073376;28;20064;-76
2022/05/19 03:36:10;;;;;;;8.15;5.65;;;19.80;75.30;;;;;;5091116;28;20043;-76
2022/05/19 03:38:38;;;;;;;13.38;10.43;;;19.80;75.40;;;;;;5110660;28;20495;-76
2022/05/19 03:41:05;;;;;;;16.42;9.73;;;19.80;76.60;;;;;;5110511;28;20048;-76
2022/05/19 03:43:32;;;;;;;14.00;9.13;;;19.70;76.30;;;;;;5076547;28;20264;-76
2022/05/19 03:46:01;;;;;;;12.00;9.07;;;19.80;76.40;;;;;;5098172;28;20048;-76
2022/05/19 03:48:36;;;;;;;9.80;6.85;;;19.80;76.10;;;;;;5091718;28;20039;-76
2022/05/19 03:51:07;;;;;;;8.10;5.68;;;19.90;75.80;;;;;;5085554;28;20044;-76
2022/05/19 03:53:34;;;;;;;6.85;5.03;;;19.90;75.60;;;;;;5112048;28;20043;-76
2022/05/19 03:56:02;;;;;;;8.60;6.00;;;20.00;75.50;;;;;;5090908;28;20036;-76
2022/05/19 03:58:29;;;;;;;7.80;5.65;;;20.00;75.40;;;;;;5111029;28;20086;-76
2022/05/19 04:00:56;;;;;;;9.25;6.03;;;20.00;75.30;;;;;;5094008;28;20039;-77
2022/05/19 04:03:23;;;;;;;8.90;5.35;;;20.10;75.10;;;;;;5073992;28;20522;-76
2022/05/19 04:05:50;;;;;;;8.55;6.50;;;20.10;75.10;;;;;;5101931;28;20032;-77
2022/05/19 04:08:17;;;;;;;8.63;6.93;;;20.10;75.10;;;;;;5073758;28;20101;-77
2022/05/19 04:10:49;;;;;;;8.15;6.03;;;20.20;75.00;;;;;;5069446;28;20450;-77
2022/05/19 04:13:16;;;;;;;7.90;5.40;;;20.20;75.00;;;;;;5112425;28;20642;-80
2022/05/19 04:15:46;;;;;;;11.02;6.28;;;20.20;74.90;;;;;;5086866;28;20036;-80
2022/05/19 04:18:16;;;;;;;6.95;5.05;;;20.20;75.00;;;;;;5093286;28;20070;-79
2022/05/19 04:20:44;;;;;;;8.70;5.10;;;20.30;74.90;;;;;;5088196;28;20097;-79
2022/05/19 04:23:11;;;;;;;6.93;4.70;;;20.30;74.80;;;;;;5082735;28;20072;-81
2022/05/19 04:25:41;;;;;;;6.20;4.38;;;20.30;74.70;;;;;;5093757;28;20502;-81
2022/05/19 04:28:09;;;;;;;7.18;5.18;;;20.30;74.60;;;;;;5077810;28;20051;-79
2022/05/19 04:30:36;;;;;;;5.20;3.65;;;20.40;74.60;;;;;;5074791;28;20068;-81
2022/05/19 04:33:04;;;;;;;6.05;3.92;;;20.40;74.40;;;;;;5089905;28;20561;-81
2022/05/19 04:35:31;;;;;;;6.30;3.10;;;20.50;74.30;;;;;;5068788;28;20169;-80
2022/05/19 04:38:07;;;;;;;4.95;2.80;;;20.50;74.10;;;;;;5092519;28;20109;-81
2022/05/19 04:40:39;;;;;;;5.13;2.45;;;20.50;73.90;;;;;;5100953;28;20051;-80
2022/05/19 04:43:14;;;;;;;4.80;2.08;;;20.60;73.70;;;;;;5079058;28;20142;-80
2022/05/19 04:45:41;;;;;;;3.33;2.10;;;20.60;73.60;;;;;;5110527;28;20051;-80
2022/05/19 04:48:09;;;;;;;4.00;1.92;;;20.60;73.40;;;;;;5077989;28;20083;-81
2022/05/19 04:50:35;;;;;;;3.00;1.52;;;20.60;73.20;;;;;;5103296;28;20078;-80
2022/05/19 04:53:02;;;;;;;2.60;1.42;;;20.70;73.10;;;;;;5097641;28;20040;-81
2022/05/19 04:55:30;;;;;;;3.05;1.30;;;20.70;73.00;;;;;;5087596;28;20044;-80
2022/05/19 04:57:56;;;;;;;3.05;1.45;;;20.70;72.90;;;;;;5060097;28;20492;-80
2022/05/19 05:00:24;;;;;;;2.85;1.20;;;20.70;72.70;;;;;;5097503;28;20482;-80
2022/05/19 05:02:51;;;;;;;3.20;1.40;;;20.70;72.70;;;;;;5097229;28;20040;-80
2022/05/19 05:05:21;;;;;;;2.92;1.33;;;20.80;73.30;;;;;;5093944;28;20048;-79
2022/05/19 05:07:50;;;;;;;3.70;1.25;;;20.80;72.50;;;;;;5091523;28;20115;-80
2022/05/19 05:10:17;;;;;;;1.85;0.93;;;20.80;72.50;;;;;;5074780;28;20095;-80
2022/05/19 05:12:46;;;;;;;1.73;0.80;;;20.80;72.40;;;;;;5073432;28;20047;-80
2022/05/19 05:15:14;;;;;;;1.63;0.80;;;20.80;72.40;;;;;;5114873;28;20118;-76
2022/05/19 05:17:42;;;;;;;1.63;0.75;;;20.80;72.40;;;;;;5102816;28;20062;-75
2022/05/19 05:20:12;;;;;;;2.40;0.90;;;20.90;72.50;;;;;;5078104;28;20056;-76
2022/05/19 05:22:40;;;;;;;1.90;0.75;;;20.90;72.30;;;;;;5097131;28;20082;-76
2022/05/19 05:25:12;;;;;;;4.05;1.10;;;21.00;72.10;;;;;;5090657;28;20036;-76
2022/05/19 05:27:41;;;;;;;2.58;0.95;;;21.00;71.70;;;;;;5108336;28;20074;-76
2022/05/19 05:30:10;;;;;;;3.55;1.38;;;21.00;71.20;;;;;;5087752;28;20838;-75
2022/05/19 05:32:37;;;;;;;2.08;0.80;;;21.10;71.60;;;;;;5091362;28;20051;-76
2022/05/19 05:35:08;;;;;;;1.60;0.52;;;21.20;70.80;;;;;;5091716;28;20480;-76
2022/05/19 05:37:36;;;;;;;3.13;0.90;;;21.20;70.50;;;;;;5112998;28;20570;-76
2022/05/19 05:40:07;;;;;;;2.20;0.80;;;21.30;70.40;;;;;;5089842;28;20052;-75
2022/05/19 05:42:34;;;;;;;1.88;0.60;;;21.30;70.10;;;;;;5079186;28;20062;-76
2022/05/19 05:45:02;;;;;;;2.30;0.98;;;21.30;70.00;;;;;;5107087;28;20044;-76
2022/05/19 05:47:29;;;;;;;1.67;0.73;;;21.30;69.60;;;;;;5092770;28;20044;-75
2022/05/19 05:50:04;;;;;;;1.70;0.70;;;21.30;70.00;;;;;;5079983;28;20051;-76
2022/05/19 05:52:32;;;;;;;2.75;0.70;;;21.30;69.50;;;;;;5113407;28;20039;-77
2022/05/19 05:55:00;;;;;;;1.02;0.65;;;21.20;69.30;;;;;;5062515;28;20040;-77
2022/05/19 05:57:28;;;;;;;3.80;0.95;;;21.30;69.20;;;;;;5059444;28;20040;-76
2022/05/19 05:59:56;;;;;;;1.55;0.70;;;21.30;69.20;;;;;;5089588;28;20044;-77
2022/05/19 06:02:23;;;;;;;1.00;0.50;;;21.30;69.10;;;;;;5078402;28;20086;-77
2022/05/19 06:04:50;;;;;;;1.10;0.60;;;21.50;69.00;;;;;;5102921;28;20078;-76
2022/05/19 06:07:17;;;;;;;1.23;0.50;;;21.50;68.90;;;;;;5095796;28;20052;-77
2022/05/19 06:09:44;;;;;;;0.70;0.40;;;21.60;68.80;;;;;;5083633;28;20476;-77
2022/05/19 06:12:12;;;;;;;2.00;0.43;;;21.70;68.80;;;;;;5079109;28;20043;-76
2022/05/19 06:14:39;;;;;;;1.75;0.50;;;21.70;68.80;;;;;;5087324;28;20132;-77
2022/05/19 06:17:07;;;;;;;1.08;0.40;;;21.80;68.80;;;;;;5112800;28;20145;-77
2022/05/19 06:19:34;;;;;;;0.70;0.40;;;21.70;68.70;;;;;;5113325;28;20504;-78
2022/05/19 06:22:01;;;;;;;0.98;0.30;;;21.70;68.70;;;;;;5109933;28;20039;-75
2022/05/19 06:24:28;;;;;;;0.80;0.40;;;21.70;68.80;;;;;;5086152;28;20066;-79
2022/05/19 06:26:55;;;;;;;0.57;0.30;;;21.70;68.90;;;;;;5095389;28;20515;-79
2022/05/19 06:29:22;;;;;;;1.65;0.40;;;21.70;68.90;;;;;;5113413;28;20138;-79
2022/05/19 06:31:49;;;;;;;1.02;0.50;;;21.80;68.80;;;;;;5112262;28;20039;-80
2022/05/19 06:34:16;;;;;;;0.77;0.40;;;21.90;68.70;;;;;;5090055;28;20067;-80
2022/05/19 06:36:47;;;;;;;1.48;0.50;;;22.00;68.70;;;;;;5095729;28;20492;-80
2022/05/19 06:39:16;;;;;;;1.17;0.35;;;22.00;68.50;;;;;;5109317;28;20119;-80
2022/05/19 06:42:02;;;;;;;0.75;0.55;;;22.20;69.00;;;;;;5075251;28;20516;-79
2022/05/19 06:44:35;;;;;;;0.95;0.45;;;22.30;68.30;;;;;;5097348;28;20035;-81
2022/05/19 06:47:10;;;;;;;2.90;0.50;;;22.30;68.20;;;;;;5104532;28;20047;-82
2022/05/19 06:49:39;;;;;;;1.20;0.40;;;22.30;68.10;;;;;;5077503;28;20040;-80
2022/05/19 06:52:06;;;;;;;2.40;0.63;;;22.40;68.10;;;;;;5075803;28;20445;-81
2022/05/19 06:54:33;;;;;;;1.38;0.60;;;22.30;67.90;;;;;;5068916;28;20043;-81
2022/05/19 06:57:01;;;;;;;0.85;0.50;;;22.40;67.90;;;;;;5101086;28;20051;-81
2022/05/19 06:59:28;;;;;;;4.28;0.60;;;22.40;67.80;;;;;;5109986;28;20097;-80
2022/05/19 07:01:55;;;;;;;0.70;0.40;;;22.40;67.80;;;;;;5062527;28;20044;-80
2022/05/19 07:04:23;;;;;;;2.35;0.52;;;22.40;67.70;;;;;;5110756;28;20047;-81
2022/05/19 07:06:48;;;;;;;0.82;0.50;;;22.50;67.60;;;;;;5088665;28;20089;-80
2022/05/19 07:09:15;;;;;;;0.90;0.50;;;22.60;67.50;;;;;;5066832;28;20047;-80
2022/05/19 07:11:42;;;;;;;0.95;0.50;;;22.60;67.40;;;;;;5074421;28;20068;-79
2022/05/19 07:14:10;;;;;;;0.90;0.47;;;22.70;67.40;;;;;;5068171;28;20373;-77
2022/05/19 07:16:37;;;;;;;1.45;0.50;;;22.80;67.30;;;;;;5094667;28;20040;-77
2022/05/19 07:21:50;;;;;;;3.00;0.70;;;22.90;67.00;;;;;;5105354;28;20100;-77
2022/05/19 07:24:22;;;;;;;0.70;0.40;;;23.00;66.90;;;;;;5110899;28;20096;-77
2022/05/19 07:26:54;;;;;;;1.73;0.68;;;23.10;66.70;;;;;;5084615;28;20059;-77
2022/05/19 07:29:25;;;;;;;1.25;0.40;;;23.20;66.60;;;;;;5105138;28;20048;-81
2022/05/19 07:31:58;;;;;;;1.20;0.40;;;23.30;66.60;;;;;;5074793;28;20036;-77
2022/05/19 07:34:25;;;;;;;1.08;0.50;;;23.30;66.50;;;;;;5101649;28;20089;-77
2022/05/19 07:36:52;;;;;;;1.25;0.50;;;23.40;66.40;;;;;;5094268;28;20135;-77
2022/05/19 07:39:20;;;;;;;1.30;0.60;;;23.40;66.30;;;;;;5079457;28;20542;-77
2022/05/19 07:41:55;;;;;;;0.82;0.38;;;23.50;66.20;;;;;;5100839;28;20031;-77
2022/05/19 07:44:28;;;;;;;0.95;0.40;;;23.50;66.20;;;;;;5084447;28;20043;-78
2022/05/19 07:46:55;;;;;;;1.15;0.35;;;23.60;66.20;;;;;;5110838;28;20047;-78
2022/05/19 07:49:22;;;;;;;0.88;0.40;;;23.60;66.00;;;;;;5076451;28;20450;-78
2022/05/19 07:51:49;;;;;;;2.88;0.47;;;23.70;65.90;;;;;;5077198;28;20672;-78
2022/05/19 07:54:19;;;;;;;1.13;0.45;;;23.70;65.80;;;;;;5086554;28;20058;-77
2022/05/19 07:56:47;;;;;;;1.00;0.40;;;23.80;66.40;;;;;;5105354;28;20127;-77
2022/05/19 07:59:15;;;;;;;1.85;0.70;;;23.80;65.70;;;;;;5110238;28;20416;-76
2022/05/19 08:01:44;;;;;;;1.45;0.40;;;23.80;65.70;;;;;;5093689;28;20050;-76
2022/05/19 08:04:18;;;;;;;1.30;0.60;;;23.80;65.70;;;;;;5096639;28;20055;-77
2022/05/19 08:06:46;;;;;;;1.80;0.70;;;23.80;65.80;;;;;;5081629;28;20099;-77
2022/05/19 08:12:04;;;;;;;1.20;0.60;;;23.80;65.50;;;;;;5110950;28;20544;-77
2022/05/19 08:17:30;;;;;;;1.23;0.50;;;24.00;65.80;;;;;;5099545;28;20415;-82
2022/05/19 08:19:58;;;;;;;1.35;0.50;;;24.20;65.00;;;;;;5109397;28;20061;-80
2022/05/19 08:22:26;;;;;;;1.40;0.60;;;24.30;64.70;;;;;;5096548;28;20039;-80
2022/05/19 08:24:53;;;;;;;1.58;0.50;;;24.50;64.40;;;;;;5091989;28;20484;-80
2022/05/19 08:27:20;;;;;;;1.58;0.60;;;24.70;64.10;;;;;;5053273;28;20427;-80
2022/05/19 08:29:47;;;;;;;1.10;0.50;;;24.80;63.70;;;;;;5093780;28;20196;-77
2022/05/19 08:32:16;;;;;;;1.42;0.70;;;25.00;63.50;;;;;;5081152;28;20044;-78
2022/05/19 08:34:43;;;;;;;3.30;0.80;;;25.20;63.20;;;;;;5094287;28;20044;-77
2022/05/19 08:37:10;;;;;;;1.33;0.70;;;25.40;62.80;;;;;;5096550;28;20100;-77
2022/05/19 08:39:37;;;;;;;1.05;0.60;;;25.60;62.40;;;;;;5112044;28;20039;-77
2022/05/19 08:42:07;;;;;;;2.90;0.60;;;25.80;62.20;;;;;;5061703;28;20039;-77
2022/05/19 08:44:48;;;;;;;1.95;0.80;;;26.00;62.00;;;;;;5106960;28;20097;-77
2022/05/19 08:47:20;;;;;;;1.83;0.93;;;26.00;61.30;;;;;;5107104;28;20047;-78
2022/05/19 08:49:58;;;;;;;2.15;0.80;;;26.00;61.40;;;;;;5114169;28;20049;-78
2022/05/19 08:52:27;;;;;;;0.80;0.40;;;26.10;61.30;;;;;;5109931;28;20128;-78
2022/05/19 08:54:57;;;;;;;1.73;0.80;;;26.10;61.20;;;;;;5109145;28;20028;-78
2022/05/19 08:57:30;;;;;;;1.50;0.73;;;26.20;61.00;;;;;;5069139;28;20488;-77
2022/05/19 09:00:07;;;;;;;1.10;0.55;;;26.40;60.80;;;;;;5098084;28;20044;-78
2022/05/19 09:02:35;;;;;;;1.45;0.70;;;26.50;60.60;;;;;;5114499;28;20050;-78
2022/05/19 09:05:07;;;;;;;1.48;0.70;;;26.60;60.50;;;;;;5096797;28;20498;-78
2022/05/19 09:08:02;;;;;;;2.25;0.68;;;26.80;60.10;;;;;;5114097;28;20523;-77
2022/05/19 09:10:51;;;;;;;1.83;0.60;;;26.90;59.80;;;;;;5099498;28;20398;-77
2022/05/19 09:13:30;;;;;;;2.08;1.10;;;27.00;59.50;;;;;;5113814;28;20044;-78
2022/05/19 09:16:02;;;;;;;1.75;1.02;;;27.10;59.40;;;;;;5114268;28;20044;-77
2022/05/19 09:18:37;;;;;;;1.50;0.70;;;27.20;59.20;;;;;;5111893;28;20093;-77
2022/05/19 09:21:08;;;;;;;1.58;1.00;;;27.20;59.10;;;;;;5102507;28;20089;-77
2022/05/19 09:23:36;;;;;;;1.50;0.77;;;27.20;58.90;;;;;;5107259;28;20047;-76
2022/05/19 09:26:17;;;;;;;2.47;1.00;;;27.10;58.90;;;;;;5111664;28;20484;-78
2022/05/19 09:28:47;;;;;;;2.00;0.80;;;27.10;58.80;;;;;;5100498;28;20043;-76
2022/05/19 09:31:32;;;;;;;1.50;0.93;;;27.10;58.90;;;;;;5114858;28;20040;-76
2022/05/19 09:34:00;;;;;;;1.83;1.00;;;27.20;58.60;;;;;;5113374;28;20048;-76
2022/05/19 09:36:38;;;;;;;1.30;0.70;;;27.30;58.60;;;;;;5109575;28;20075;-77
2022/05/19 09:39:14;;;;;;;1.40;0.82;;;27.50;58.30;;;;;;5074841;28;20040;-77
2022/05/19 09:41:48;;;;;;;1.40;0.65;;;27.70;58.20;;;;;;5107872;28;20121;-73
2022/05/19 09:44:26;;;;;;;1.30;0.80;;;27.80;57.90;;;;;;5107852;28;20472;-75
2022/05/19 09:46:54;;;;;;;1.52;0.80;;;28.00;58.20;;;;;;5107318;28;20036;-74
2022/05/19 09:49:32;;;;;;;2.13;1.02;;;28.00;57.40;;;;;;5113819;28;20071;-74
2022/05/19 09:52:04;;;;;;;1.45;0.82;;;28.10;57.30;;;;;;5111446;28;20114;-74
2022/05/19 09:54:33;;;;;;;3.47;0.85;;;28.10;57.20;;;;;;5072611;28;20496;-74
2022/05/19 09:57:08;;;;;;;3.10;0.90;;;28.10;57.10;;;;;;5091948;28;20131;-74
2022/05/19 09:59:51;;;;;;;1.83;1.00;;;28.10;57.00;;;;;;5110843;28;20044;-74
2022/05/19 10:02:23;;;;;;;1.45;0.77;;;28.10;57.00;;;;;;5109783;28;20050;-74
2022/05/19 10:04:55;;;;;;;1.17;0.60;;;28.00;56.90;;;;;;5111412;28;20122;-75
2022/05/19 10:07:28;;;;;;;0.90;0.60;;;27.90;56.90;;;;;;5111483;28;20522;-74
2022/05/19 10:09:58;;;;;;;1.50;0.68;;;27.80;56.90;;;;;;5110135;28;20039;-74
2022/05/19 10:12:32;;;;;;;2.17;0.70;;;27.70;57.00;;;;;;5112740;28;20047;-74
2022/05/19 10:15:02;;;;;;;1.90;0.80;;;27.60;57.00;;;;;;5112840;28;20039;-75
2022/05/19 10:18:01;;;;;;;1.30;0.73;;;27.50;57.10;;;;;;5112658;28;20036;-74
2022/05/19 10:20:37;;;;;;;0.73;0.47;;;27.30;57.20;;;;;;5097051;28;20040;-74
2022/05/19 10:23:31;;;;;;;1.95;0.70;;;27.30;57.20;;;;;;5109599;28;20171;-75
2022/05/19 10:26:20;;;;;;;1.35;0.60;;;27.40;57.10;;;;;;5093086;28;20058;-74
2022/05/19 10:32:17;;;;;;;1.35;0.60;;;27.60;56.50;;;;;;5102946;27;20104;-75
2022/05/19 10:34:53;;;;;;;1.52;0.80;;;27.80;56.30;;;;;;5104024;28;20467;-75
2022/05/19 10:37:38;;;;;;;1.42;0.90;;;27.70;56.20;;;;;;5112280;28;20544;-75
2022/05/19 10:40:14;;;;;;;1.58;0.85;;;27.80;56.00;;;;;;5103039;28;20047;-75
2022/05/19 10:43:12;;;;;;;1.15;0.63;;;27.90;55.90;;;;;;5104682;28;20036;-75
2022/05/19 10:45:44;;;;;;;1.55;0.50;;;27.90;55.50;;;;;;5107165;28;20480;-75
2022/05/19 10:48:44;;;;;;;1.55;0.73;;;28.00;55.50;;;;;;5103246;28;20044;-81
2022/05/19 10:51:37;;;;;;;1.20;0.55;;;28.10;55.20;;;;;;5085623;28;20044;-77
2022/05/19 10:54:17;;;;;;;1.65;0.73;;;28.30;55.10;;;;;;5070866;28;20130;-76
2022/05/19 10:57:10;;;;;;;2.50;0.57;;;28.40;54.80;;;;;;5099656;28;20035;-76
2022/05/19 10:59:43;;;;;;;1.27;0.60;;;28.50;54.40;;;;;;5103065;28;20507;-77
2022/05/19 11:02:51;;;;;;;1.65;0.70;;;28.50;54.50;;;;;;5109027;28;20375;-77
2022/05/19 11:05:52;;;;;;;0.95;0.68;;;28.60;54.40;;;;;;5079315;27;20060;-77
2022/05/19 11:08:32;;;;;;;0.82;0.50;;;28.60;54.40;;;;;;5080746;28;20040;-77
2022/05/19 11:11:24;;;;;;;1.65;0.95;;;28.70;54.20;;;;;;5089407;28;20047;-80
2022/05/19 11:14:21;;;;;;;1.95;1.05;;;28.90;53.80;;;;;;5098488;28;20044;-82
2022/05/19 11:17:29;;;;;;;1.52;0.70;;;28.90;53.60;;;;;;5110882;28;20032;-85
2022/05/19 11:20:26;;;;;;;1.73;0.80;;;28.90;53.70;;;;;;5070884;28;20134;-82
2022/05/19 11:23:10;;;;;;;2.42;0.68;;;29.00;53.70;;;;;;5074210;28;20048;-80
2022/05/19 11:28:42;;;;;;;1.45;0.80;;;29.00;53.70;;;;;;5112673;28;20387;-81
2022/05/19 11:31:27;;;;;;;1.42;0.70;;;28.70;53.70;;;;;;5093068;28;20399;-80
2022/05/19 11:33:56;;;;;;;1.45;0.65;;;28.40;53.90;;;;;;5099534;28;20059;-83
2022/05/19 11:36:37;;;;;;;1.33;0.80;;;28.30;54.20;;;;;;5109966;28;20038;-82
2022/05/19 11:39:19;;;;;;;1.50;0.75;;;28.20;54.20;;;;;;5075770;28;20032;-82
2022/05/19 11:41:54;;;;;;;1.55;0.90;;;28.10;54.10;;;;;;5088781;28;20503;-80
2022/05/19 11:44:47;;;;;;;1.15;0.70;;;27.90;54.10;;;;;;5103202;28;20101;-80
2022/05/19 11:56:16;;;;;;;1.98;0.88;;;26.90;55.50;;;;;;5108021;28;20043;-81
2022/05/19 11:58:45;;;;;;;1.48;0.73;;;26.60;56.30;;;;;;5096042;27;20040;-80
2022/05/19 12:01:31;;;;;;;1.40;0.77;;;26.40;56.90;;;;;;5077500;28;20132;-80
2022/05/19 12:04:30;;;;;;;1.98;0.75;;;26.10;57.90;;;;;;5080671;28;20867;-80
2022/05/19 12:07:12;;;;;;;2.25;0.80;;;25.90;58.70;;;;;;5062788;28;20055;-80
2022/05/19 12:09:49;;;;;;;1.60;0.98;;;25.60;59.30;;;;;;5090165;28;20059;-81
2022/05/19 12:12:34;;;;;;;1.58;0.90;;;25.50;59.90;;;;;;5103405;28;20039;-80
2022/05/19 12:15:18;;;;;;;3.28;1.05;;;25.30;60.20;;;;;;5109961;28;20472;-82
2022/05/19 12:17:57;;;;;;;2.85;0.85;;;25.10;60.60;;;;;;5106231;28;20044;-82
2022/05/19 12:20:45;;;;;;;3.10;1.42;;;25.00;61.10;;;;;;5111398;28;20474;-83
2022/05/19 12:23:15;;;;;;;5.05;1.75;;;24.70;62.90;;;;;;5089280;28;20146;-82
2022/05/19 12:25:46;;;;;;;8.38;1.70;;;23.90;65.40;;;;;;5108762;28;20027;-84
2022/05/19 12:28:20;;;;;;;7.53;1.25;;;22.70;69.70;;;;;;5097036;28;20130;-84
2022/05/19 12:34:00;;;;;;;4.75;0.40;;;19.40;79.20;;;;;;5111419;28;20411;-86
2022/05/19 12:40:31;;;;;;;3.90;0.63;;;17.80;85.50;;;;;;5114366;28;20035;-85
2022/05/19 12:43:43;;;;;;;3.58;0.30;;;17.40;87.30;;;;;;5018045;28;20029;-87
2022/05/19 12:46:44;;;;;;;1.83;0.30;;;17.10;90.30;;;;;;5025166;28;20042;-85
2022/05/19 12:49:33;;;;;;;1.80;0.30;;;17.00;90.00;;;;;;5001554;28;20050;-86
2022/05/19 12:52:27;;;;;;;3.53;0.50;;;17.00;90.10;;;;;;5007979;28;20177;-85
2022/05/19 12:55:28;;;;;;;2.28;0.55;;;17.00;90.50;;;;;;5033451;28;20072;-85
2022/05/19 12:58:03;;;;;;;2.33;0.63;;;17.10;90.40;;;;;;5017108;28;20517;-84
2022/05/19 13:00:39;;;;;;;1.60;0.70;;;17.20;90.20;;;;;;5030519;28;20437;-85
2022/05/19 13:04:03;;;;;;;4.05;0.63;;;17.30;90.40;;;;;;5016707;28;20053;-86
2022/05/19 13:06:44;;;;;;;2.90;1.02;;;17.40;90.10;;;;;;5032614;28;20604;-85
2022/05/19 13:09:40;;;;;;;2.10;0.90;;;17.40;90.30;;;;;;5013194;28;20081;-85
2022/05/19 13:12:23;;;;;;;4.07;0.90;;;17.50;90.40;;;;;;5004739;28;20072;-85
2022/05/19 13:15:10;;;;;;;1.88;0.95;;;17.50;90.40;;;;;;5008451;28;20045;-85
2022/05/19 13:17:46;;;;;;;1.85;0.70;;;17.50;90.50;;;;;;4990644;28;20524;-83
2022/05/19 13:20:35;;;;;;;1.95;0.80;;;17.50;90.40;;;;;;4947278;28;20117;-84
2022/05/19 13:30:43;;;;;;;2.92;0.93;;;17.60;90.60;;;;;;4990161;28;20124;-84
2022/05/19 13:33:17;;;;;;;3.13;1.00;;;17.60;90.60;;;;;;5028824;28;20128;-87
2022/05/19 13:35:45;;;;;;;2.88;0.98;;;17.60;90.60;;;;;;5013194;28;20041;-85
2022/05/19 13:38:20;;;;;;;3.28;1.17;;;17.60;90.80;;;;;;5000214;28;20480;-87
2022/05/19 13:40:50;;;;;;;3.10;1.10;;;17.70;90.90;;;;;;5034119;28;20055;-86
2022/05/19 13:43:46;;;;;;;3.03;1.20;;;17.80;90.90;;;;;;5023029;28;20065;-86
2022/05/19 13:46:19;;;;;;;4.15;1.15;;;17.90;90.90;;;;;;5032880;28;20592;-86
2022/05/19 13:48:56;;;;;;;2.55;0.93;;;18.10;90.80;;;;;;5033341;28;20615;-85
2022/05/19 13:51:27;;;;;;;1.98;0.95;;;18.30;90.60;;;;;;5017949;28;20037;-86
2022/05/19 13:54:02;;;;;;;2.88;1.13;;;18.50;90.50;;;;;;5017695;28;20536;-83
2022/05/19 13:56:38;;;;;;;2.40;1.10;;;18.60;90.40;;;;;;5044162;28;20455;-84
2022/05/19 13:59:07;;;;;;;1.27;0.65;;;18.70;90.30;;;;;;5107036;28;20436;-83
2022/05/19 14:01:47;;;;;;;1.80;0.80;;;18.80;90.30;;;;;;5104299;28;20040;-84